sensor_id;sensor_type;location;lat;lon;timestamp;temperature;humidity
18160;DHT22;9205;52.032;4.314;2022-09-24T00:01:30;15.10;99.90
18160;DHT22;9205;52.032;4.314;2022-09-24T00:04:00;15.10;99.90
18160;DHT22;9205;52.032;4.314;2022-09-24T00:06:34;15.10;99.90
18160;DHT22;9205;52.032;4.314;2022-09-24T00:09:03;15.00;99.90
18160;DHT22;9205;52.032;4.314;2022-09-24T00:11:32;15.10;99.90
18160;DHT22;9205;52.032;4.314;2022-09-24T00:14:00;14.90;99.90
18160;DHT22;9205;52.032;4.314;2022-09-24T00:16:28;15.20;99.90
18160;DHT22;9205;52.032;4.314;2022-09-24T00:18:59;15.10;99.90
18160;DHT22;9205;52.032;4.314;2022-09-24T00:21:29;15.20;99.90
18160;DHT22;9205;52.032;4.314;2022-09-24T00:23:59;15.20;99.90
18160;DHT22;9205;52.032;4.314;2022-09-24T00:26:28;15.10;99.90
18160;DHT22;9205;52.032;4.314;2022-09-24T00:29:16;15.10;99.90
18160;DHT22;9205;52.032;4.314;2022-09-24T00:31:45;15.00;99.90
18160;DHT22;9205;52.032;4.314;2022-09-24T00:34:12;14.90;99.90
18160;DHT22;9205;52.032;4.314;2022-09-24T00:36:40;15.00;99.90
18160;DHT22;9205;52.032;4.314;2022-09-24T00:39:07;14.90;99.90
18160;DHT22;9205;52.032;4.314;2022-09-24T00:41:36;14.90;99.90
18160;DHT22;9205;52.032;4.314;2022-09-24T00:47:25;15.00;99.90
18160;DHT22;9205;52.032;4.314;2022-09-24T00:50:09;14.90;99.90
18160;DHT22;9205;52.032;4.314;2022-09-24T00:52:44;14.80;99.90
18160;DHT22;9205;52.032;4.314;2022-09-24T00:55:23;15.00;99.90
18160;DHT22;9205;52.032;4.314;2022-09-24T00:57:55;15.00;99.90
18160;DHT22;9205;52.032;4.314;2022-09-24T01:00:26;14.90;99.90
18160;DHT22;9205;52.032;4.314;2022-09-24T01:02:57;15.00;99.90
18160;DHT22;9205;52.032;4.314;2022-09-24T01:05:27;15.10;99.90
18160;DHT22;9205;52.032;4.314;2022-09-24T01:07:55;15.00;99.90
18160;DHT22;9205;52.032;4.314;2022-09-24T01:10:32;15.00;99.90
18160;DHT22;9205;52.032;4.314;2022-09-24T01:13:35;14.90;99.90
18160;DHT22;9205;52.032;4.314;2022-09-24T01:16:27;15.00;99.90
18160;DHT22;9205;52.032;4.314;2022-09-24T01:19:09;14.90;99.90
18160;DHT22;9205;52.032;4.314;2022-09-24T01:21:53;14.90;99.90
18160;DHT22;9205;52.032;4.314;2022-09-24T01:24:40;15.10;99.90
18160;DHT22;9205;52.032;4.314;2022-09-24T01:27:20;15.00;99.90
18160;DHT22;9205;52.032;4.314;2022-09-24T01:30:05;14.90;99.90
18160;DHT22;9205;52.032;4.314;2022-09-24T01:32:39;15.00;99.90
18160;DHT22;9205;52.032;4.314;2022-09-24T01:35:15;14.90;99.90
18160;DHT22;9205;52.032;4.314;2022-09-24T01:37:49;14.90;99.90
18160;DHT22;9205;52.032;4.314;2022-09-24T01:40:23;14.90;99.90
18160;DHT22;9205;52.032;4.314;2022-09-24T01:42:54;15.10;99.90
18160;DHT22;9205;52.032;4.314;2022-09-24T01:45:26;15.00;99.90
18160;DHT22;9205;52.032;4.314;2022-09-24T01:47:58;14.90;99.90
18160;DHT22;9205;52.032;4.314;2022-09-24T01:50:28;14.80;99.90
18160;DHT22;9205;52.032;4.314;2022-09-24T01:53:01;14.90;99.90
18160;DHT22;9205;52.032;4.314;2022-09-24T01:55:36;15.10;99.90
18160;DHT22;9205;52.032;4.314;2022-09-24T01:58:10;14.90;99.90
18160;DHT22;9205;52.032;4.314;2022-09-24T02:00:45;14.80;99.90
18160;DHT22;9205;52.032;4.314;2022-09-24T02:03:20;15.10;99.90
18160;DHT22;9205;52.032;4.314;2022-09-24T02:05:57;15.10;99.90
18160;DHT22;9205;52.032;4.314;2022-09-24T02:08:31;15.00;99.90
18160;DHT22;9205;52.032;4.314;2022-09-24T02:11:06;15.10;99.90
18160;DHT22;9205;52.032;4.314;2022-09-24T02:13:42;15.20;99.90
18160;DHT22;9205;52.032;4.314;2022-09-24T02:16:19;15.00;99.90
18160;DHT22;9205;52.032;4.314;2022-09-24T02:18:52;15.10;99.90
18160;DHT22;9205;52.032;4.314;2022-09-24T02:21:24;15.00;99.90
18160;DHT22;9205;52.032;4.314;2022-09-24T02:23:58;15.10;99.90
18160;DHT22;9205;52.032;4.314;2022-09-24T02:26:29;15.10;99.90
18160;DHT22;9205;52.032;4.314;2022-09-24T02:28:56;15.00;99.90
18160;DHT22;9205;52.032;4.314;2022-09-24T02:31:28;14.90;99.90
18160;DHT22;9205;52.032;4.314;2022-09-24T02:33:59;14.90;99.90
18160;DHT22;9205;52.032;4.314;2022-09-24T02:36:52;14.90;99.90
18160;DHT22;9205;52.032;4.314;2022-09-24T02:39:21;15.10;99.90
18160;DHT22;9205;52.032;4.314;2022-09-24T02:41:48;14.90;99.90
18160;DHT22;9205;52.032;4.314;2022-09-24T02:44:18;14.90;99.90
18160;DHT22;9205;52.032;4.314;2022-09-24T02:46:47;15.10;99.90
18160;DHT22;9205;52.032;4.314;2022-09-24T02:49:15;15.10;99.90
18160;DHT22;9205;52.032;4.314;2022-09-24T02:51:43;15.10;99.90
18160;DHT22;9205;52.032;4.314;2022-09-24T02:54:11;15.10;99.90
18160;DHT22;9205;52.032;4.314;2022-09-24T02:56:38;15.00;99.90
18160;DHT22;9205;52.032;4.314;2022-09-24T02:59:06;15.10;99.90
18160;DHT22;9205;52.032;4.314;2022-09-24T03:01:34;14.90;99.90
18160;DHT22;9205;52.032;4.314;2022-09-24T03:04:03;14.90;99.90
18160;DHT22;9205;52.032;4.314;2022-09-24T03:06:31;15.00;99.90
18160;DHT22;9205;52.032;4.314;2022-09-24T03:08:58;15.20;99.90
18160;DHT22;9205;52.032;4.314;2022-09-24T03:11:28;15.10;99.90
18160;DHT22;9205;52.032;4.314;2022-09-24T03:13:57;15.10;99.90
18160;DHT22;9205;52.032;4.314;2022-09-24T03:16:25;15.20;99.90
18160;DHT22;9205;52.032;4.314;2022-09-24T03:18:53;15.00;99.90
18160;DHT22;9205;52.032;4.314;2022-09-24T03:21:22;15.10;99.90
18160;DHT22;9205;52.032;4.314;2022-09-24T03:23:49;15.20;99.90
18160;DHT22;9205;52.032;4.314;2022-09-24T03:26:17;15.00;99.90
18160;DHT22;9205;52.032;4.314;2022-09-24T03:28:44;15.10;99.90
18160;DHT22;9205;52.032;4.314;2022-09-24T03:31:11;15.10;99.90
18160;DHT22;9205;52.032;4.314;2022-09-24T03:33:40;15.10;99.90
18160;DHT22;9205;52.032;4.314;2022-09-24T03:36:10;15.00;99.90
18160;DHT22;9205;52.032;4.314;2022-09-24T03:38:42;15.00;99.90
18160;DHT22;9205;52.032;4.314;2022-09-24T03:41:12;15.00;99.90
18160;DHT22;9205;52.032;4.314;2022-09-24T03:43:40;15.10;99.90
18160;DHT22;9205;52.032;4.314;2022-09-24T03:46:08;15.00;99.90
18160;DHT22;9205;52.032;4.314;2022-09-24T03:48:39;15.10;99.90
18160;DHT22;9205;52.032;4.314;2022-09-24T03:51:08;15.20;99.90
18160;DHT22;9205;52.032;4.314;2022-09-24T03:53:37;15.00;99.90
18160;DHT22;9205;52.032;4.314;2022-09-24T03:56:06;15.20;99.90
18160;DHT22;9205;52.032;4.314;2022-09-24T03:58:36;15.10;99.90
18160;DHT22;9205;52.032;4.314;2022-09-24T04:01:04;15.20;99.90
18160;DHT22;9205;52.032;4.314;2022-09-24T04:03:31;15.00;99.90
18160;DHT22;9205;52.032;4.314;2022-09-24T04:05:59;15.10;99.90
18160;DHT22;9205;52.032;4.314;2022-09-24T04:08:26;15.20;99.90
18160;DHT22;9205;52.032;4.314;2022-09-24T04:10:54;15.30;99.90
18160;DHT22;9205;52.032;4.314;2022-09-24T04:13:22;15.10;99.90
18160;DHT22;9205;52.032;4.314;2022-09-24T04:15:49;15.30;99.90
18160;DHT22;9205;52.032;4.314;2022-09-24T04:18:17;15.30;99.90
18160;DHT22;9205;52.032;4.314;2022-09-24T04:20:44;15.30;99.90
18160;DHT22;9205;52.032;4.314;2022-09-24T04:23:12;15.20;99.90
18160;DHT22;9205;52.032;4.314;2022-09-24T04:25:40;15.20;99.90
18160;DHT22;9205;52.032;4.314;2022-09-24T04:28:08;15.10;99.90
18160;DHT22;9205;52.032;4.314;2022-09-24T04:30:37;15.30;99.90
18160;DHT22;9205;52.032;4.314;2022-09-24T04:33:05;15.00;99.90
18160;DHT22;9205;52.032;4.314;2022-09-24T04:35:34;15.20;99.90
18160;DHT22;9205;52.032;4.314;2022-09-24T04:38:02;15.10;99.90
18160;DHT22;9205;52.032;4.314;2022-09-24T04:40:30;15.10;99.90
18160;DHT22;9205;52.032;4.314;2022-09-24T04:42:58;14.90;99.90
18160;DHT22;9205;52.032;4.314;2022-09-24T04:45:25;15.20;99.90
18160;DHT22;9205;52.032;4.314;2022-09-24T04:47:53;15.20;99.90
18160;DHT22;9205;52.032;4.314;2022-09-24T04:50:22;15.00;99.90
18160;DHT22;9205;52.032;4.314;2022-09-24T04:52:51;15.10;99.90
18160;DHT22;9205;52.032;4.314;2022-09-24T04:55:19;15.00;99.90
18160;DHT22;9205;52.032;4.314;2022-09-24T04:57:47;15.10;99.90
18160;DHT22;9205;52.032;4.314;2022-09-24T05:00:17;15.00;99.90
18160;DHT22;9205;52.032;4.314;2022-09-24T05:02:46;15.10;99.90
18160;DHT22;9205;52.032;4.314;2022-09-24T05:05:22;15.00;99.90
18160;DHT22;9205;52.032;4.314;2022-09-24T05:07:49;14.90;99.90
18160;DHT22;9205;52.032;4.314;2022-09-24T05:10:17;14.80;99.90
18160;DHT22;9205;52.032;4.314;2022-09-24T05:12:45;15.00;99.90
18160;DHT22;9205;52.032;4.314;2022-09-24T05:15:12;15.00;99.90
18160;DHT22;9205;52.032;4.314;2022-09-24T05:17:39;14.80;99.90
18160;DHT22;9205;52.032;4.314;2022-09-24T05:20:07;15.10;99.90
18160;DHT22;9205;52.032;4.314;2022-09-24T05:22:41;15.00;99.90
18160;DHT22;9205;52.032;4.314;2022-09-24T05:25:09;14.90;99.90
18160;DHT22;9205;52.032;4.314;2022-09-24T05:27:37;15.10;99.90
18160;DHT22;9205;52.032;4.314;2022-09-24T05:30:09;15.10;99.90
18160;DHT22;9205;52.032;4.314;2022-09-24T05:32:37;15.20;99.90
18160;DHT22;9205;52.032;4.314;2022-09-24T05:35:05;15.00;99.90
18160;DHT22;9205;52.032;4.314;2022-09-24T05:37:34;15.00;99.90
18160;DHT22;9205;52.032;4.314;2022-09-24T05:40:05;15.10;99.90
18160;DHT22;9205;52.032;4.314;2022-09-24T05:42:47;14.90;99.90
18160;DHT22;9205;52.032;4.314;2022-09-24T05:45:14;15.00;99.90
18160;DHT22;9205;52.032;4.314;2022-09-24T05:47:43;15.10;99.90
18160;DHT22;9205;52.032;4.314;2022-09-24T05:50:11;15.00;99.90
18160;DHT22;9205;52.032;4.314;2022-09-24T05:52:38;15.00;99.90
18160;DHT22;9205;52.032;4.314;2022-09-24T05:55:09;15.00;99.90
18160;DHT22;9205;52.032;4.314;2022-09-24T05:57:36;15.10;99.90
18160;DHT22;9205;52.032;4.314;2022-09-24T06:00:05;14.90;99.90
18160;DHT22;9205;52.032;4.314;2022-09-24T06:02:39;15.10;99.90
18160;DHT22;9205;52.032;4.314;2022-09-24T06:05:07;15.00;99.90
18160;DHT22;9205;52.032;4.314;2022-09-24T06:07:35;15.10;99.90
18160;DHT22;9205;52.032;4.314;2022-09-24T06:10:03;15.00;99.90
18160;DHT22;9205;52.032;4.314;2022-09-24T06:12:33;15.00;99.90
18160;DHT22;9205;52.032;4.314;2022-09-24T06:15:00;14.90;99.90
18160;DHT22;9205;52.032;4.314;2022-09-24T06:17:28;14.90;99.90
18160;DHT22;9205;52.032;4.314;2022-09-24T06:19:56;14.90;99.90
18160;DHT22;9205;52.032;4.314;2022-09-24T06:22:23;15.10;99.90
18160;DHT22;9205;52.032;4.314;2022-09-24T06:24:51;14.80;99.90
18160;DHT22;9205;52.032;4.314;2022-09-24T06:27:18;14.90;99.90
18160;DHT22;9205;52.032;4.314;2022-09-24T06:29:47;14.80;99.90
18160;DHT22;9205;52.032;4.314;2022-09-24T06:32:15;14.80;99.90
18160;DHT22;9205;52.032;4.314;2022-09-24T06:34:47;14.70;99.90
18160;DHT22;9205;52.032;4.314;2022-09-24T06:37:14;14.90;99.90
18160;DHT22;9205;52.032;4.314;2022-09-24T06:39:41;14.60;99.90
18160;DHT22;9205;52.032;4.314;2022-09-24T06:42:08;14.80;99.90
18160;DHT22;9205;52.032;4.314;2022-09-24T06:44:38;15.00;99.90
18160;DHT22;9205;52.032;4.314;2022-09-24T06:47:06;15.00;99.90
18160;DHT22;9205;52.032;4.314;2022-09-24T06:49:33;14.90;99.90
18160;DHT22;9205;52.032;4.314;2022-09-24T06:52:01;15.00;99.90
18160;DHT22;9205;52.032;4.314;2022-09-24T06:54:29;14.90;99.90
18160;DHT22;9205;52.032;4.314;2022-09-24T06:56:56;14.80;99.90
18160;DHT22;9205;52.032;4.314;2022-09-24T06:59:23;14.80;99.90
18160;DHT22;9205;52.032;4.314;2022-09-24T07:01:50;14.90;99.90
18160;DHT22;9205;52.032;4.314;2022-09-24T07:04:19;14.80;99.90
18160;DHT22;9205;52.032;4.314;2022-09-24T07:06:46;14.90;99.90
18160;DHT22;9205;52.032;4.314;2022-09-24T07:09:31;15.00;99.90
18160;DHT22;9205;52.032;4.314;2022-09-24T07:11:58;15.10;99.90
18160;DHT22;9205;52.032;4.314;2022-09-24T07:14:30;15.10;99.90
18160;DHT22;9205;52.032;4.314;2022-09-24T07:16:57;15.00;99.90
18160;DHT22;9205;52.032;4.314;2022-09-24T07:19:25;15.00;99.90
18160;DHT22;9205;52.032;4.314;2022-09-24T07:21:52;14.90;99.90
18160;DHT22;9205;52.032;4.314;2022-09-24T07:24:19;15.00;99.90
18160;DHT22;9205;52.032;4.314;2022-09-24T07:26:46;15.00;99.90
18160;DHT22;9205;52.032;4.314;2022-09-24T07:29:14;15.00;99.90
18160;DHT22;9205;52.032;4.314;2022-09-24T07:31:41;14.90;99.90
18160;DHT22;9205;52.032;4.314;2022-09-24T07:34:08;14.90;99.90
18160;DHT22;9205;52.032;4.314;2022-09-24T07:36:37;15.00;99.90
18160;DHT22;9205;52.032;4.314;2022-09-24T07:39:04;15.00;99.90
18160;DHT22;9205;52.032;4.314;2022-09-24T07:41:32;15.10;99.90
18160;DHT22;9205;52.032;4.314;2022-09-24T07:43:59;15.00;99.90
18160;DHT22;9205;52.032;4.314;2022-09-24T07:46:27;15.10;99.90
18160;DHT22;9205;52.032;4.314;2022-09-24T07:48:54;14.90;99.90
18160;DHT22;9205;52.032;4.314;2022-09-24T07:51:22;15.10;99.90
18160;DHT22;9205;52.032;4.314;2022-09-24T07:53:52;15.10;99.90
18160;DHT22;9205;52.032;4.314;2022-09-24T07:56:19;15.20;99.90
18160;DHT22;9205;52.032;4.314;2022-09-24T07:58:47;15.20;99.90
18160;DHT22;9205;52.032;4.314;2022-09-24T08:01:15;15.20;99.90
18160;DHT22;9205;52.032;4.314;2022-09-24T08:03:42;15.30;99.90
18160;DHT22;9205;52.032;4.314;2022-09-24T08:06:10;15.30;99.90
18160;DHT22;9205;52.032;4.314;2022-09-24T08:08:38;15.10;99.90
18160;DHT22;9205;52.032;4.314;2022-09-24T08:11:09;15.20;99.90
18160;DHT22;9205;52.032;4.314;2022-09-24T08:13:37;15.30;99.90
18160;DHT22;9205;52.032;4.314;2022-09-24T08:16:08;15.20;99.90
18160;DHT22;9205;52.032;4.314;2022-09-24T08:18:36;15.30;99.90
18160;DHT22;9205;52.032;4.314;2022-09-24T08:21:05;15.10;99.90
18160;DHT22;9205;52.032;4.314;2022-09-24T08:23:34;15.20;99.90
18160;DHT22;9205;52.032;4.314;2022-09-24T08:26:02;15.20;99.90
18160;DHT22;9205;52.032;4.314;2022-09-24T08:28:31;15.00;99.90
18160;DHT22;9205;52.032;4.314;2022-09-24T08:31:00;15.30;99.90
18160;DHT22;9205;52.032;4.314;2022-09-24T08:33:28;15.10;99.90
18160;DHT22;9205;52.032;4.314;2022-09-24T08:35:58;15.10;99.90
18160;DHT22;9205;52.032;4.314;2022-09-24T08:38:26;15.20;99.90
18160;DHT22;9205;52.032;4.314;2022-09-24T08:40:58;15.10;99.90
18160;DHT22;9205;52.032;4.314;2022-09-24T08:43:48;15.10;99.90
18160;DHT22;9205;52.032;4.314;2022-09-24T08:46:23;15.10;99.90
18160;DHT22;9205;52.032;4.314;2022-09-24T08:49:14;15.10;99.90
18160;DHT22;9205;52.032;4.314;2022-09-24T08:51:53;15.10;99.90
18160;DHT22;9205;52.032;4.314;2022-09-24T08:54:28;15.10;99.90
18160;DHT22;9205;52.032;4.314;2022-09-24T08:57:03;15.00;99.90
18160;DHT22;9205;52.032;4.314;2022-09-24T08:59:41;15.10;99.90
18160;DHT22;9205;52.032;4.314;2022-09-24T09:02:22;15.00;99.90
18160;DHT22;9205;52.032;4.314;2022-09-24T09:05:03;15.20;99.90
18160;DHT22;9205;52.032;4.314;2022-09-24T09:07:46;15.10;99.90
18160;DHT22;9205;52.032;4.314;2022-09-24T09:10:23;15.10;99.90
18160;DHT22;9205;52.032;4.314;2022-09-24T09:12:57;15.30;99.90
18160;DHT22;9205;52.032;4.314;2022-09-24T09:15:34;15.20;99.90
18160;DHT22;9205;52.032;4.314;2022-09-24T09:18:13;15.10;99.90
18160;DHT22;9205;52.032;4.314;2022-09-24T09:20:45;15.50;99.90
18160;DHT22;9205;52.032;4.314;2022-09-24T09:23:17;15.30;99.90
18160;DHT22;9205;52.032;4.314;2022-09-24T09:25:48;15.60;99.90
18160;DHT22;9205;52.032;4.314;2022-09-24T09:28:18;15.40;99.90
18160;DHT22;9205;52.032;4.314;2022-09-24T09:30:58;15.60;99.90
18160;DHT22;9205;52.032;4.314;2022-09-24T09:33:48;15.30;99.90
18160;DHT22;9205;52.032;4.314;2022-09-24T09:36:34;15.50;99.90
18160;DHT22;9205;52.032;4.314;2022-09-24T09:39:30;15.60;99.90
18160;DHT22;9205;52.032;4.314;2022-09-24T09:42:14;15.50;99.90
18160;DHT22;9205;52.032;4.314;2022-09-24T09:44:59;15.60;99.90
18160;DHT22;9205;52.032;4.314;2022-09-24T09:47:39;15.40;99.90
18160;DHT22;9205;52.032;4.314;2022-09-24T09:50:17;15.30;99.90
18160;DHT22;9205;52.032;4.314;2022-09-24T09:52:52;15.40;99.90
18160;DHT22;9205;52.032;4.314;2022-09-24T09:55:23;15.30;99.90
18160;DHT22;9205;52.032;4.314;2022-09-24T09:57:52;15.30;99.90
18160;DHT22;9205;52.032;4.314;2022-09-24T10:00:27;15.40;99.90
18160;DHT22;9205;52.032;4.314;2022-09-24T10:03:01;15.30;99.90
18160;DHT22;9205;52.032;4.314;2022-09-24T10:05:29;15.40;99.90
18160;DHT22;9205;52.032;4.314;2022-09-24T10:07:57;15.40;99.90
18160;DHT22;9205;52.032;4.314;2022-09-24T10:10:25;15.50;99.90
18160;DHT22;9205;52.032;4.314;2022-09-24T10:13:06;15.40;99.90
18160;DHT22;9205;52.032;4.314;2022-09-24T10:15:39;15.60;99.90
18160;DHT22;9205;52.032;4.314;2022-09-24T10:18:16;15.50;99.90
18160;DHT22;9205;52.032;4.314;2022-09-24T10:20:54;15.20;99.90
18160;DHT22;9205;52.032;4.314;2022-09-24T10:23:27;15.40;99.90
18160;DHT22;9205;52.032;4.314;2022-09-24T10:26:01;15.30;99.90
18160;DHT22;9205;52.032;4.314;2022-09-24T10:28:30;15.50;99.90
18160;DHT22;9205;52.032;4.314;2022-09-24T10:31:20;15.40;99.90
18160;DHT22;9205;52.032;4.314;2022-09-24T10:33:53;15.50;99.90
18160;DHT22;9205;52.032;4.314;2022-09-24T10:36:24;15.50;99.90
18160;DHT22;9205;52.032;4.314;2022-09-24T10:39:02;15.40;99.90
18160;DHT22;9205;52.032;4.314;2022-09-24T10:41:32;15.30;99.90
18160;DHT22;9205;52.032;4.314;2022-09-24T10:44:03;15.50;99.90
18160;DHT22;9205;52.032;4.314;2022-09-24T10:46:59;15.20;99.90
18160;DHT22;9205;52.032;4.314;2022-09-24T10:53:00;15.20;99.90
18160;DHT22;9205;52.032;4.314;2022-09-24T10:55:38;15.30;99.90
18160;DHT22;9205;52.032;4.314;2022-09-24T10:58:33;15.30;99.90
18160;DHT22;9205;52.032;4.314;2022-09-24T11:01:14;15.50;99.90
18160;DHT22;9205;52.032;4.314;2022-09-24T11:04:09;15.40;99.90
18160;DHT22;9205;52.032;4.314;2022-09-24T11:10:27;15.30;99.90
18160;DHT22;9205;52.032;4.314;2022-09-24T11:13:13;15.10;99.90
18160;DHT22;9205;52.032;4.314;2022-09-24T11:16:14;15.30;99.90
18160;DHT22;9205;52.032;4.314;2022-09-24T11:18:56;15.40;99.90
18160;DHT22;9205;52.032;4.314;2022-09-24T11:21:44;15.30;99.90
18160;DHT22;9205;52.032;4.314;2022-09-24T11:24:49;15.40;99.90
18160;DHT22;9205;52.032;4.314;2022-09-24T11:27:47;15.10;99.90
18160;DHT22;9205;52.032;4.314;2022-09-24T11:30:27;15.30;99.90
18160;DHT22;9205;52.032;4.314;2022-09-24T11:33:15;15.10;99.90
18160;DHT22;9205;52.032;4.314;2022-09-24T11:36:05;15.20;99.90
18160;DHT22;9205;52.032;4.314;2022-09-24T11:38:57;15.20;99.90
18160;DHT22;9205;52.032;4.314;2022-09-24T11:41:41;15.40;99.90
18160;DHT22;9205;52.032;4.314;2022-09-24T11:48:03;15.20;99.90
18160;DHT22;9205;52.032;4.314;2022-09-24T11:50:51;15.30;99.90
18160;DHT22;9205;52.032;4.314;2022-09-24T11:53:31;15.40;99.90
18160;DHT22;9205;52.032;4.314;2022-09-24T11:56:08;15.40;99.90
18160;DHT22;9205;52.032;4.314;2022-09-24T11:58:45;15.50;99.90
18160;DHT22;9205;52.032;4.314;2022-09-24T12:01:19;15.50;99.90
18160;DHT22;9205;52.032;4.314;2022-09-24T12:03:55;15.50;99.90
18160;DHT22;9205;52.032;4.314;2022-09-24T12:06:30;15.50;99.90
18160;DHT22;9205;52.032;4.314;2022-09-24T12:09:08;15.70;99.90
18160;DHT22;9205;52.032;4.314;2022-09-24T12:11:46;15.40;99.90
18160;DHT22;9205;52.032;4.314;2022-09-24T12:14:22;15.80;99.90
18160;DHT22;9205;52.032;4.314;2022-09-24T12:16:55;15.80;99.90
18160;DHT22;9205;52.032;4.314;2022-09-24T12:19:30;15.70;99.90
18160;DHT22;9205;52.032;4.314;2022-09-24T12:22:01;15.50;99.90
18160;DHT22;9205;52.032;4.314;2022-09-24T12:24:34;15.40;99.90
18160;DHT22;9205;52.032;4.314;2022-09-24T12:27:11;15.60;99.90
18160;DHT22;9205;52.032;4.314;2022-09-24T12:29:46;15.40;99.90
18160;DHT22;9205;52.032;4.314;2022-09-24T12:32:41;15.40;99.90
18160;DHT22;9205;52.032;4.314;2022-09-24T12:35:36;15.60;99.90
18160;DHT22;9205;52.032;4.314;2022-09-24T12:38:17;15.70;99.90
18160;DHT22;9205;52.032;4.314;2022-09-24T12:41:20;15.60;99.90
18160;DHT22;9205;52.032;4.314;2022-09-24T12:44:03;15.60;99.90
18160;DHT22;9205;52.032;4.314;2022-09-24T12:46:40;15.80;99.90
18160;DHT22;9205;52.032;4.314;2022-09-24T12:49:17;15.70;99.90
18160;DHT22;9205;52.032;4.314;2022-09-24T12:51:55;15.80;99.90
18160;DHT22;9205;52.032;4.314;2022-09-24T12:54:28;15.70;99.90
18160;DHT22;9205;52.032;4.314;2022-09-24T12:57:05;15.80;99.90
18160;DHT22;9205;52.032;4.314;2022-09-24T12:59:46;15.80;99.90
18160;DHT22;9205;52.032;4.314;2022-09-24T13:02:18;15.90;99.90
18160;DHT22;9205;52.032;4.314;2022-09-24T13:05:13;16.00;99.90
18160;DHT22;9205;52.032;4.314;2022-09-24T13:07:55;16.10;99.90
18160;DHT22;9205;52.032;4.314;2022-09-24T13:10:28;15.90;99.90
18160;DHT22;9205;52.032;4.314;2022-09-24T13:13:21;15.80;99.90
18160;DHT22;9205;52.032;4.314;2022-09-24T13:15:59;16.00;99.90
18160;DHT22;9205;52.032;4.314;2022-09-24T13:18:32;16.00;99.90
18160;DHT22;9205;52.032;4.314;2022-09-24T13:21:04;16.10;99.90
18160;DHT22;9205;52.032;4.314;2022-09-24T13:23:44;16.10;99.90
18160;DHT22;9205;52.032;4.314;2022-09-24T13:26:26;16.00;99.90
18160;DHT22;9205;52.032;4.314;2022-09-24T13:29:00;16.10;99.90
18160;DHT22;9205;52.032;4.314;2022-09-24T13:31:37;16.20;99.90
18160;DHT22;9205;52.032;4.314;2022-09-24T13:34:17;16.10;99.90
18160;DHT22;9205;52.032;4.314;2022-09-24T13:36:53;16.10;99.90
18160;DHT22;9205;52.032;4.314;2022-09-24T13:39:31;16.20;99.90
18160;DHT22;9205;52.032;4.314;2022-09-24T13:42:06;16.20;99.90
18160;DHT22;9205;52.032;4.314;2022-09-24T13:44:47;16.10;99.90
18160;DHT22;9205;52.032;4.314;2022-09-24T13:47:26;16.10;99.90
18160;DHT22;9205;52.032;4.314;2022-09-24T13:50:15;16.20;99.90
18160;DHT22;9205;52.032;4.314;2022-09-24T13:52:47;16.20;99.90
18160;DHT22;9205;52.032;4.314;2022-09-24T13:55:21;16.20;99.90
18160;DHT22;9205;52.032;4.314;2022-09-24T13:57:52;16.20;99.90
18160;DHT22;9205;52.032;4.314;2022-09-24T14:00:22;16.30;99.90
18160;DHT22;9205;52.032;4.314;2022-09-24T14:02:55;16.10;99.90
18160;DHT22;9205;52.032;4.314;2022-09-24T14:05:31;16.30;99.90
18160;DHT22;9205;52.032;4.314;2022-09-24T14:08:04;16.20;99.90
18160;DHT22;9205;52.032;4.314;2022-09-24T14:10:34;16.20;99.90
18160;DHT22;9205;52.032;4.314;2022-09-24T14:13:25;16.10;99.90
18160;DHT22;9205;52.032;4.314;2022-09-24T14:16:12;16.10;99.90
18160;DHT22;9205;52.032;4.314;2022-09-24T14:18:41;16.20;99.90
18160;DHT22;9205;52.032;4.314;2022-09-24T14:21:15;16.20;99.90
18160;DHT22;9205;52.032;4.314;2022-09-24T14:23:50;16.20;99.90
18160;DHT22;9205;52.032;4.314;2022-09-24T14:26:25;16.30;99.90
18160;DHT22;9205;52.032;4.314;2022-09-24T14:28:58;16.20;99.90
18160;DHT22;9205;52.032;4.314;2022-09-24T14:31:29;16.20;99.90
18160;DHT22;9205;52.032;4.314;2022-09-24T14:33:57;16.20;99.90
18160;DHT22;9205;52.032;4.314;2022-09-24T14:36:34;16.10;99.90
18160;DHT22;9205;52.032;4.314;2022-09-24T14:39:04;16.10;99.90
18160;DHT22;9205;52.032;4.314;2022-09-24T14:41:34;16.10;99.90
18160;DHT22;9205;52.032;4.314;2022-09-24T14:44:04;16.10;99.90
18160;DHT22;9205;52.032;4.314;2022-09-24T14:46:46;16.00;99.90
18160;DHT22;9205;52.032;4.314;2022-09-24T14:49:18;16.00;99.90
18160;DHT22;9205;52.032;4.314;2022-09-24T14:51:53;15.90;99.90
18160;DHT22;9205;52.032;4.314;2022-09-24T14:54:28;15.90;99.90
18160;DHT22;9205;52.032;4.314;2022-09-24T14:57:19;15.90;99.90
18160;DHT22;9205;52.032;4.314;2022-09-24T14:59:50;15.90;99.90
18160;DHT22;9205;52.032;4.314;2022-09-24T15:02:20;15.80;99.90
18160;DHT22;9205;52.032;4.314;2022-09-24T15:04:55;15.80;99.90
18160;DHT22;9205;52.032;4.314;2022-09-24T15:07:29;15.90;99.90
18160;DHT22;9205;52.032;4.314;2022-09-24T15:09:58;15.90;99.90
18160;DHT22;9205;52.032;4.314;2022-09-24T15:12:30;15.90;99.90
18160;DHT22;9205;52.032;4.314;2022-09-24T15:15:00;15.90;99.90
18160;DHT22;9205;52.032;4.314;2022-09-24T15:17:31;15.90;99.90
18160;DHT22;9205;52.032;4.314;2022-09-24T15:20:02;15.90;99.90
18160;DHT22;9205;52.032;4.314;2022-09-24T15:22:40;15.90;99.90
18160;DHT22;9205;52.032;4.314;2022-09-24T15:25:09;15.90;99.90
18160;DHT22;9205;52.032;4.314;2022-09-24T15:27:41;15.90;99.90
18160;DHT22;9205;52.032;4.314;2022-09-24T15:30:19;15.90;99.90
18160;DHT22;9205;52.032;4.314;2022-09-24T15:32:55;15.90;99.90
18160;DHT22;9205;52.032;4.314;2022-09-24T15:35:22;16.10;99.90
18160;DHT22;9205;52.032;4.314;2022-09-24T15:37:51;16.10;99.90
18160;DHT22;9205;52.032;4.314;2022-09-24T15:40:22;16.00;99.90
18160;DHT22;9205;52.032;4.314;2022-09-24T15:42:55;16.00;99.90
18160;DHT22;9205;52.032;4.314;2022-09-24T15:45:23;16.10;99.90
18160;DHT22;9205;52.032;4.314;2022-09-24T15:47:52;16.10;99.90
18160;DHT22;9205;52.032;4.314;2022-09-24T15:50:27;16.10;99.90
18160;DHT22;9205;52.032;4.314;2022-09-24T15:53:14;16.10;99.90
18160;DHT22;9205;52.032;4.314;2022-09-24T15:55:46;16.00;99.90
18160;DHT22;9205;52.032;4.314;2022-09-24T15:58:16;16.00;99.90
18160;DHT22;9205;52.032;4.314;2022-09-24T16:00:44;16.10;99.90
18160;DHT22;9205;52.032;4.314;2022-09-24T16:03:31;16.00;99.90
18160;DHT22;9205;52.032;4.314;2022-09-24T16:06:11;16.10;99.90
18160;DHT22;9205;52.032;4.314;2022-09-24T16:08:44;16.10;99.90
18160;DHT22;9205;52.032;4.314;2022-09-24T16:11:14;16.10;99.90
18160;DHT22;9205;52.032;4.314;2022-09-24T16:13:57;16.10;99.90
18160;DHT22;9205;52.032;4.314;2022-09-24T16:16:28;16.20;99.90
18160;DHT22;9205;52.032;4.314;2022-09-24T16:19:25;16.10;99.90
18160;DHT22;9205;52.032;4.314;2022-09-24T16:22:17;16.10;99.90
18160;DHT22;9205;52.032;4.314;2022-09-24T16:25:32;16.00;99.90
18160;DHT22;9205;52.032;4.314;2022-09-24T16:28:34;15.90;99.90
18160;DHT22;9205;52.032;4.314;2022-09-24T16:31:16;15.90;99.90
18160;DHT22;9205;52.032;4.314;2022-09-24T16:33:45;15.90;99.90
18160;DHT22;9205;52.032;4.314;2022-09-24T16:36:13;15.90;99.90
18160;DHT22;9205;52.032;4.314;2022-09-24T16:38:43;15.80;99.90
18160;DHT22;9205;52.032;4.314;2022-09-24T16:41:15;15.80;99.90